Time;durP1;ratioP1;P1;durP2;ratioP2;P2;SDS_P1;SDS_P2;PMS_P1;PMS_P2;Temp;Humidity;BMP_temperature;BMP_pressure;BME280_temperature;BME280_humidity;BME280_pressure;Samples;Min_cycle;Max_cycle;Signal;HPM_P1;HPM_P2
2021/05/10 00:00:50;;;;;;;4.57;4.17;;;21.00;93.70;;;;;;5032337;28;20265;-69
2021/05/10 00:03:19;;;;;;;5.20;4.70;;;20.90;95.40;;;;;;5035174;28;20462;-68
2021/05/10 00:05:46;;;;;;;5.10;4.70;;;20.90;97.40;;;;;;5037084;28;20478;-70
2021/05/10 00:08:12;;;;;;;4.83;4.43;;;20.90;99.10;;;;;;5038040;28;20446;-70
2021/05/10 00:10:38;;;;;;;5.13;4.70;;;20.80;99.90;;;;;;5036132;28;21164;-69
2021/05/10 00:13:05;;;;;;;4.50;4.20;;;20.70;99.90;;;;;;5030842;28;20458;-71
2021/05/10 00:15:31;;;;;;;5.10;4.60;;;20.70;99.90;;;;;;5034905;28;20473;-70
2021/05/10 00:18:02;;;;;;;4.63;4.33;;;20.60;99.90;;;;;;5038510;28;20473;-70
2021/05/10 00:20:33;;;;;;;5.63;4.30;;;20.60;99.90;;;;;;5034472;28;20351;-70
2021/05/10 00:23:00;;;;;;;4.30;4.00;;;20.60;99.90;;;;;;5033780;28;20468;-71
2021/05/10 00:25:27;;;;;;;4.97;4.57;;;20.50;99.90;;;;;;5032812;28;20438;-69
2021/05/10 00:27:53;;;;;;;4.60;4.20;;;20.50;99.90;;;;;;5037656;28;20443;-70
2021/05/10 00:30:19;;;;;;;4.80;4.40;;;20.50;99.90;;;;;;5038637;28;20461;-71
2021/05/10 00:32:46;;;;;;;4.77;4.37;;;20.50;99.90;;;;;;5037311;28;20457;-70
2021/05/10 00:35:13;;;;;;;4.30;4.00;;;20.50;99.90;;;;;;5036041;28;20472;-69
2021/05/10 00:37:38;;;;;;;5.17;3.90;;;20.50;99.90;;;;;;5024201;28;20450;-71
2021/05/10 00:40:06;;;;;;;5.30;4.10;;;20.40;99.90;;;;;;5031116;28;22144;-69
2021/05/10 00:42:32;;;;;;;4.90;4.40;;;20.40;99.90;;;;;;5036180;28;20191;-69
2021/05/10 00:44:57;;;;;;;5.23;4.67;;;20.40;99.90;;;;;;5033189;28;21160;-71
2021/05/10 00:47:23;;;;;;;7.40;3.80;;;20.40;99.90;;;;;;5035206;28;20202;-71
2021/05/10 00:49:48;;;;;;;9.20;4.20;;;20.40;99.90;;;;;;5040700;28;20192;-71
2021/05/10 00:52:14;;;;;;;4.87;4.47;;;20.30;99.90;;;;;;5046969;28;20557;-70
2021/05/10 00:54:40;;;;;;;4.90;4.50;;;20.20;99.90;;;;;;5045129;28;20252;-70
2021/05/10 00:57:06;;;;;;;4.30;3.90;;;20.10;99.90;;;;;;5043019;28;20306;-71
2021/05/10 00:59:31;;;;;;;5.43;4.00;;;20.00;99.90;;;;;;5044930;28;20207;-71
2021/05/10 01:01:57;;;;;;;3.90;3.70;;;20.00;99.90;;;;;;5043866;28;20523;-70
2021/05/10 01:04:23;;;;;;;4.50;4.10;;;19.90;99.90;;;;;;5045420;28;20322;-71
2021/05/10 01:06:48;;;;;;;5.10;4.07;;;19.80;99.90;;;;;;5044222;28;20191;-71
2021/05/10 01:09:14;;;;;;;3.60;3.40;;;19.70;99.90;;;;;;5026759;28;20280;-71
2021/05/10 01:11:40;;;;;;;4.00;3.70;;;19.70;99.90;;;;;;5027055;28;20199;-69
2021/05/10 01:14:05;;;;;;;4.00;3.70;;;19.80;99.90;;;;;;5043556;28;20725;-71
2021/05/10 01:16:31;;;;;;;3.90;3.60;;;19.80;99.90;;;;;;5023393;28;20654;-71
2021/05/10 01:18:57;;;;;;;7.70;4.23;;;19.90;99.90;;;;;;5043845;28;20306;-71
2021/05/10 01:21:24;;;;;;;3.90;3.70;;;19.70;99.90;;;;;;5042385;28;20223;-69
2021/05/10 01:23:50;;;;;;;3.90;3.70;;;19.70;99.90;;;;;;5035211;28;20211;-71
2021/05/10 01:26:16;;;;;;;3.80;3.60;;;19.60;99.90;;;;;;5044432;28;20440;-71
2021/05/10 01:28:42;;;;;;;4.17;3.87;;;19.60;99.90;;;;;;5043080;28;20434;-71
2021/05/10 01:31:09;;;;;;;4.27;3.87;;;19.70;99.90;;;;;;5034107;28;20215;-70
2021/05/10 01:33:35;;;;;;;4.20;3.80;;;19.70;99.90;;;;;;5044675;28;21049;-69
2021/05/10 01:36:01;;;;;;;3.77;3.50;;;19.70;99.90;;;;;;5043839;28;20449;-70
2021/05/10 01:38:27;;;;;;;4.30;4.00;;;19.70;99.90;;;;;;5042871;28;21043;-71
2021/05/10 01:40:52;;;;;;;6.00;3.77;;;19.80;99.90;;;;;;5037078;28;20569;-72
2021/05/10 01:43:18;;;;;;;4.60;3.73;;;19.80;99.90;;;;;;5037846;28;20852;-69
2021/05/10 01:45:45;;;;;;;4.23;3.93;;;19.90;99.90;;;;;;5043999;28;20200;-70
2021/05/10 01:48:12;;;;;;;4.20;4.00;;;19.90;99.90;;;;;;5043818;28;21345;-71
2021/05/10 01:50:40;;;;;;;4.43;4.00;;;20.00;99.90;;;;;;5043202;28;20449;-69
2021/05/10 01:53:07;;;;;;;4.37;4.00;;;20.00;99.90;;;;;;5033542;28;20489;-72
2021/05/10 01:55:33;;;;;;;4.10;3.80;;;20.00;99.90;;;;;;5044160;28;21030;-68
2021/05/10 01:58:01;;;;;;;3.97;3.67;;;20.00;99.90;;;;;;5045202;28;22748;-71
2021/05/10 02:00:29;;;;;;;4.20;3.90;;;20.00;99.90;;;;;;5031802;28;20481;-68
2021/05/10 02:03:03;;;;;;;4.23;3.83;;;20.00;99.90;;;;;;5039855;28;20434;-69
2021/05/10 02:05:29;;;;;;;7.23;3.90;;;20.00;99.90;;;;;;5042436;28;21130;-71
2021/05/10 02:07:58;;;;;;;3.63;3.40;;;20.00;99.90;;;;;;5042833;28;20908;-70
2021/05/10 02:10:32;;;;;;;4.20;3.90;;;20.00;99.90;;;;;;5039247;28;20875;-68
2021/05/10 02:13:00;;;;;;;4.03;3.67;;;20.00;99.90;;;;;;5031227;28;20461;-70
2021/05/10 02:15:28;;;;;;;4.70;4.30;;;20.00;99.90;;;;;;5041261;28;20441;-72
2021/05/10 02:17:54;;;;;;;4.40;3.70;;;20.10;99.90;;;;;;5041425;28;21047;-72
2021/05/10 02:20:22;;;;;;;3.80;3.50;;;20.10;99.90;;;;;;5041170;28;20860;-70
2021/05/10 02:22:52;;;;;;;3.67;3.47;;;20.10;99.90;;;;;;5034969;28;20533;-71
2021/05/10 02:25:23;;;;;;;4.47;4.17;;;20.10;99.90;;;;;;5038529;28;20445;-70
2021/05/10 02:27:49;;;;;;;4.20;3.90;;;20.20;99.90;;;;;;5040363;28;20435;-70
2021/05/10 02:30:16;;;;;;;4.30;3.90;;;20.10;99.90;;;;;;5035152;28;20829;-68
2021/05/10 02:32:42;;;;;;;4.43;4.13;;;20.10;99.90;;;;;;5031870;28;20488;-71
2021/05/10 02:35:09;;;;;;;3.53;3.33;;;20.10;99.90;;;;;;5037212;28;20446;-70
2021/05/10 02:37:34;;;;;;;3.90;3.60;;;20.10;99.90;;;;;;5039836;28;20434;-71
2021/05/10 02:40:00;;;;;;;4.67;4.27;;;20.10;99.90;;;;;;5039497;28;20576;-71
2021/05/10 02:42:25;;;;;;;3.50;3.20;;;20.10;99.20;;;;;;5040868;28;20439;-70
2021/05/10 02:44:51;;;;;;;3.67;3.47;;;20.10;97.90;;;;;;5029989;28;20261;-71
2021/05/10 02:47:17;;;;;;;3.57;3.27;;;20.20;95.80;;;;;;5038970;28;20200;-70
2021/05/10 02:49:42;;;;;;;4.87;4.00;;;20.20;95.20;;;;;;5021649;28;20659;-70
2021/05/10 02:52:08;;;;;;;5.33;4.03;;;20.30;96.20;;;;;;5020865;28;20287;-71
2021/05/10 02:54:34;;;;;;;3.90;3.60;;;20.20;96.30;;;;;;5028769;28;20207;-70
2021/05/10 02:56:59;;;;;;;5.03;3.60;;;20.20;97.30;;;;;;5040742;28;20199;-70
2021/05/10 02:59:25;;;;;;;5.00;3.93;;;20.20;98.60;;;;;;5039708;28;20250;-72
2021/05/10 03:01:50;;;;;;;4.30;4.00;;;20.10;98.70;;;;;;5039821;28;20267;-71
2021/05/10 03:04:16;;;;;;;4.80;4.40;;;20.10;99.10;;;;;;5040126;28;20227;-71
2021/05/10 03:06:42;;;;;;;6.33;4.53;;;20.10;99.50;;;;;;5028325;28;20712;-71
2021/05/10 03:09:07;;;;;;;6.23;5.73;;;20.00;99.40;;;;;;5035620;28;20691;-71
2021/05/10 03:11:33;;;;;;;5.60;5.10;;;20.00;99.60;;;;;;5038505;28;20243;-70
2021/05/10 03:13:58;;;;;;;6.23;5.63;;;20.00;99.50;;;;;;5036495;28;20273;-71
2021/05/10 03:16:24;;;;;;;6.30;5.70;;;20.00;99.50;;;;;;5036679;28;20745;-70
2021/05/10 03:18:49;;;;;;;7.33;6.60;;;20.00;99.20;;;;;;5037716;28;20227;-69
2021/05/10 03:21:16;;;;;;;6.50;5.90;;;20.00;99.20;;;;;;5028380;28;20341;-71
2021/05/10 03:23:42;;;;;;;8.33;5.47;;;20.00;98.90;;;;;;5028923;28;20281;-67
2021/05/10 03:26:07;;;;;;;8.00;6.10;;;20.00;97.60;;;;;;5039383;28;20876;-70
2021/05/10 03:28:33;;;;;;;4.97;4.57;;;20.00;97.30;;;;;;5038163;28;20206;-71
2021/05/10 03:30:58;;;;;;;5.57;5.13;;;20.10;97.50;;;;;;5017294;28;20294;-70
2021/05/10 03:33:24;;;;;;;4.70;4.40;;;20.00;97.40;;;;;;5039060;28;20212;-72
2021/05/10 03:35:50;;;;;;;4.03;3.73;;;20.00;96.90;;;;;;5033239;28;20281;-69
2021/05/10 03:38:15;;;;;;;4.33;4.00;;;20.00;97.60;;;;;;5037739;28;20327;-72
2021/05/10 03:40:41;;;;;;;3.60;3.40;;;20.00;98.10;;;;;;5026436;28;20290;-68
2021/05/10 03:43:06;;;;;;;4.10;3.80;;;19.90;98.20;;;;;;5037142;28;20697;-71
2021/05/10 03:45:34;;;;;;;4.53;4.00;;;19.80;98.20;;;;;;5038343;28;20202;-69
2021/05/10 03:48:01;;;;;;;6.63;4.03;;;19.80;99.30;;;;;;5038056;28;20203;-70
2021/05/10 03:50:26;;;;;;;4.10;3.80;;;19.60;99.90;;;;;;5039641;28;20435;-68
2021/05/10 03:52:52;;;;;;;4.40;4.10;;;19.50;99.90;;;;;;5028779;28;20507;-70
2021/05/10 03:55:23;;;;;;;4.30;3.90;;;19.50;99.90;;;;;;5038106;28;22255;-69
2021/05/10 03:57:48;;;;;;;3.93;3.73;;;19.40;99.90;;;;;;5036758;28;20331;-69
2021/05/10 04:00:16;;;;;;;4.20;3.90;;;19.40;99.90;;;;;;5037573;28;20533;-68
2021/05/10 04:02:43;;;;;;;3.77;3.57;;;19.40;99.90;;;;;;5025984;28;20204;-70
2021/05/10 04:05:37;;;;;;;3.83;3.53;;;19.30;99.90;;;;;;5037848;28;20455;-70
2021/05/10 04:11:09;;;;;;;4.17;3.83;;;19.40;99.90;;;;;;4992288;28;20434;-68
2021/05/10 04:16:00;;;;;;;3.83;3.57;;;19.40;99.90;;;;;;5032243;28;20477;-68
2021/05/10 04:18:26;;;;;;;3.53;3.33;;;19.40;99.90;;;;;;5034107;28;20215;-70
2021/05/10 04:20:52;;;;;;;4.10;3.80;;;19.50;99.90;;;;;;5036712;28;20184;-69
2021/05/10 04:23:21;;;;;;;4.63;3.73;;;19.50;99.90;;;;;;5038548;28;20321;-72
2021/05/10 04:25:48;;;;;;;4.13;3.83;;;19.50;99.90;;;;;;5036127;28;20200;-70
2021/05/10 04:28:15;;;;;;;4.17;3.90;;;19.60;99.90;;;;;;5031518;28;20474;-70
2021/05/10 04:30:41;;;;;;;5.40;4.10;;;19.70;99.90;;;;;;5034087;28;20446;-70
2021/05/10 04:33:07;;;;;;;3.90;3.60;;;19.70;99.90;;;;;;5036433;28;22773;-69
2021/05/10 04:35:33;;;;;;;4.40;4.10;;;19.80;99.90;;;;;;5038067;28;20426;-71
2021/05/10 04:38:08;;;;;;;4.30;4.00;;;19.80;99.90;;;;;;5030802;28;20631;-71
2021/05/10 04:40:38;;;;;;;4.40;4.00;;;19.80;99.90;;;;;;5035439;28;20457;-69
2021/05/10 04:43:04;;;;;;;4.47;3.60;;;19.80;99.90;;;;;;5036416;28;20445;-70
2021/05/10 04:45:30;;;;;;;7.10;4.27;;;19.80;99.90;;;;;;5037498;28;20533;-70
2021/05/10 04:47:55;;;;;;;4.03;3.73;;;19.80;99.90;;;;;;5036664;28;21327;-68
2021/05/10 04:50:21;;;;;;;4.47;4.17;;;19.80;99.90;;;;;;5027354;28;20223;-72
2021/05/10 04:52:47;;;;;;;4.60;4.20;;;19.80;99.90;;;;;;5036147;28;20198;-69
2021/05/10 04:55:13;;;;;;;4.73;4.33;;;19.80;99.90;;;;;;5037107;28;20212;-70
2021/05/10 04:57:39;;;;;;;11.60;4.57;;;19.80;99.90;;;;;;5032036;28;20207;-70
2021/05/10 05:00:07;;;;;;;4.90;4.60;;;19.90;99.90;;;;;;5031896;28;20461;-69
2021/05/10 05:02:33;;;;;;;4.80;4.30;;;19.90;99.90;;;;;;5036482;28;20434;-69
2021/05/10 05:04:58;;;;;;;4.87;4.57;;;20.00;99.90;;;;;;5038396;28;20489;-71
2021/05/10 05:07:24;;;;;;;4.90;4.60;;;20.00;99.90;;;;;;5015998;28;20188;-70
2021/05/10 05:09:50;;;;;;;4.57;4.27;;;20.00;99.90;;;;;;5028486;28;20226;-71
2021/05/10 05:12:15;;;;;;;4.73;4.30;;;20.10;99.90;;;;;;5038112;28;20196;-71
2021/05/10 05:14:41;;;;;;;4.60;4.30;;;20.00;99.90;;;;;;5033070;28;20269;-71
2021/05/10 05:17:08;;;;;;;4.47;4.07;;;20.10;99.90;;;;;;5036722;28;20786;-68
2021/05/10 05:19:33;;;;;;;5.10;4.70;;;20.10;99.90;;;;;;5037418;28;20207;-70
2021/05/10 05:21:59;;;;;;;4.70;4.30;;;20.10;99.90;;;;;;5026292;28;21157;-70
2021/05/10 05:24:25;;;;;;;5.10;4.67;;;20.10;99.90;;;;;;5033027;28;20222;-69
2021/05/10 05:26:50;;;;;;;5.13;4.57;;;20.10;99.90;;;;;;5036212;28;20180;-69
2021/05/10 05:29:19;;;;;;;4.90;4.50;;;20.10;99.90;;;;;;5037443;28;20300;-70
2021/05/10 05:31:45;;;;;;;8.27;4.57;;;20.20;99.90;;;;;;5036295;28;20179;-70
2021/05/10 05:34:11;;;;;;;10.40;5.20;;;20.30;99.90;;;;;;5028279;28;20993;-69
2021/05/10 05:36:36;;;;;;;13.13;5.33;;;20.30;99.90;;;;;;5037727;28;20223;-69
2021/05/10 05:39:06;;;;;;;12.17;6.27;;;20.20;99.90;;;;;;5040813;28;20288;-70
2021/05/10 05:41:32;;;;;;;13.73;6.37;;;20.10;99.90;;;;;;5042342;28;20658;-72
2021/05/10 05:43:58;;;;;;;10.70;5.77;;;20.10;99.90;;;;;;5038579;28;20463;-69
2021/05/10 05:46:28;;;;;;;6.33;5.20;;;20.10;99.90;;;;;;5026572;28;20454;-67
2021/05/10 05:48:54;;;;;;;5.90;4.73;;;20.00;99.90;;;;;;5040247;28;20950;-70
2021/05/10 05:51:22;;;;;;;6.10;4.60;;;20.10;99.90;;;;;;5041138;28;20429;-68
2021/05/10 05:53:50;;;;;;;10.43;5.10;;;20.20;99.90;;;;;;5033985;28;20457;-71
2021/05/10 05:56:16;;;;;;;6.67;4.60;;;20.20;99.90;;;;;;5039643;28;20441;-70
2021/05/10 05:58:42;;;;;;;4.90;4.50;;;20.10;99.90;;;;;;5040015;28;20891;-73
2021/05/10 06:01:08;;;;;;;5.20;4.70;;;20.10;99.90;;;;;;5041440;28;20188;-71
2021/05/10 06:03:33;;;;;;;6.23;5.00;;;20.10;99.90;;;;;;5033956;28;21156;-69
2021/05/10 06:05:59;;;;;;;7.10;5.43;;;20.10;99.90;;;;;;5038226;28;20188;-71
2021/05/10 06:08:25;;;;;;;4.93;4.53;;;20.20;99.90;;;;;;5041781;28;20196;-70
2021/05/10 06:10:51;;;;;;;4.80;4.17;;;20.20;99.90;;;;;;5040611;28;20203;-70
2021/05/10 06:13:16;;;;;;;8.87;7.20;;;20.30;99.90;;;;;;5040425;28;20220;-72
2021/05/10 06:15:42;;;;;;;5.23;4.73;;;20.30;99.90;;;;;;5011439;28;20480;-70
2021/05/10 06:18:09;;;;;;;6.00;3.97;;;20.40;99.90;;;;;;5039510;28;20211;-70
2021/05/10 06:20:34;;;;;;;5.27;4.83;;;20.40;99.90;;;;;;5040982;28;20266;-70
2021/05/10 06:23:02;;;;;;;5.70;4.47;;;20.40;99.90;;;;;;5039071;28;20477;-69
2021/05/10 06:25:28;;;;;;;5.50;4.93;;;20.40;99.90;;;;;;5037979;28;20211;-69
2021/05/10 06:27:54;;;;;;;5.23;4.60;;;20.40;99.90;;;;;;5026501;28;20450;-70
2021/05/10 06:30:20;;;;;;;7.90;5.03;;;20.50;99.90;;;;;;5041062;28;20472;-70
2021/05/10 06:32:49;;;;;;;4.93;4.60;;;20.50;99.90;;;;;;5042399;28;20184;-70
2021/05/10 06:35:15;;;;;;;4.33;4.03;;;20.60;99.90;;;;;;5036901;28;20902;-70
2021/05/10 06:37:41;;;;;;;8.00;3.90;;;20.60;99.90;;;;;;5036212;28;20512;-70
2021/05/10 06:40:07;;;;;;;7.40;4.17;;;20.60;99.90;;;;;;5043699;28;20835;-70
2021/05/10 06:42:33;;;;;;;10.37;4.70;;;20.60;99.90;;;;;;5040746;28;20219;-70
2021/05/10 06:44:59;;;;;;;4.70;3.60;;;20.80;99.90;;;;;;5039758;28;20589;-70
2021/05/10 06:47:28;;;;;;;7.40;4.27;;;20.80;99.90;;;;;;5040379;28;20246;-70
2021/05/10 06:49:54;;;;;;;5.47;4.00;;;20.70;99.90;;;;;;5040178;28;21175;-71
2021/05/10 06:52:19;;;;;;;5.57;5.00;;;20.60;99.90;;;;;;5026877;28;20457;-71
2021/05/10 06:54:45;;;;;;;4.87;3.87;;;20.60;99.90;;;;;;5041482;28;20503;-71
2021/05/10 06:57:11;;;;;;;4.23;3.83;;;20.60;99.90;;;;;;5042361;28;20844;-70
2021/05/10 06:59:37;;;;;;;4.63;4.30;;;20.60;99.90;;;;;;5031186;28;20211;-70
2021/05/10 07:02:03;;;;;;;4.70;4.30;;;20.70;99.90;;;;;;5024597;28;20957;-69
2021/05/10 07:04:29;;;;;;;4.43;4.13;;;20.60;99.90;;;;;;5041598;28;20458;-70
2021/05/10 07:06:54;;;;;;;4.43;4.03;;;20.60;99.90;;;;;;5041032;28;20192;-70
2021/05/10 07:09:21;;;;;;;8.00;4.17;;;20.50;99.90;;;;;;5044594;28;20184;-70
2021/05/10 07:11:47;;;;;;;7.30;6.70;;;20.60;99.90;;;;;;5030974;28;20213;-69
2021/05/10 07:14:13;;;;;;;4.97;4.57;;;20.70;99.90;;;;;;5041527;28;20448;-71
2021/05/10 07:16:38;;;;;;;4.77;4.40;;;20.70;99.90;;;;;;5042214;28;20494;-71
2021/05/10 07:19:04;;;;;;;4.77;4.37;;;20.70;99.90;;;;;;5021452;28;20231;-70
2021/05/10 07:21:30;;;;;;;4.83;4.30;;;20.60;99.90;;;;;;5028779;28;20200;-70
2021/05/10 07:23:55;;;;;;;4.50;4.20;;;20.60;99.90;;;;;;5038538;28;20216;-71
2021/05/10 07:26:21;;;;;;;7.33;4.17;;;20.70;99.90;;;;;;5041028;28;20187;-71
2021/05/10 07:28:47;;;;;;;8.00;4.07;;;20.70;99.90;;;;;;5040221;28;20212;-71
2021/05/10 07:31:13;;;;;;;4.93;4.60;;;20.90;99.90;;;;;;5035315;28;20208;-70
2021/05/10 07:33:38;;;;;;;5.60;4.53;;;20.90;99.90;;;;;;5032883;28;20203;-70
2021/05/10 07:36:04;;;;;;;6.30;3.77;;;20.80;99.90;;;;;;5023215;28;20437;-70
2021/05/10 07:38:30;;;;;;;4.50;4.10;;;20.80;99.90;;;;;;5039221;28;20200;-69
2021/05/10 07:40:56;;;;;;;5.13;4.40;;;20.80;99.90;;;;;;5037424;28;20713;-71
2021/05/10 07:43:22;;;;;;;8.63;4.63;;;20.90;99.90;;;;;;5028869;28;20210;-70
2021/05/10 07:45:47;;;;;;;6.20;4.60;;;20.90;99.90;;;;;;5038938;28;20287;-69
2021/05/10 07:48:13;;;;;;;3.77;3.50;;;20.90;99.90;;;;;;5039244;28;20484;-70
2021/05/10 07:50:39;;;;;;;5.00;4.60;;;20.90;99.90;;;;;;5037442;28;20180;-70
2021/05/10 07:53:04;;;;;;;4.50;4.10;;;20.90;99.90;;;;;;5039252;28;20336;-69
2021/05/10 07:55:30;;;;;;;4.20;3.60;;;21.10;99.90;;;;;;5028587;28;20207;-71
2021/05/10 07:57:56;;;;;;;4.20;3.90;;;21.00;99.90;;;;;;5037532;28;20206;-70
2021/05/10 08:00:34;;;;;;;4.60;4.20;;;20.90;99.90;;;;;;5038964;28;20285;-71
2021/05/10 08:03:11;;;;;;;4.57;4.17;;;20.80;99.90;;;;;;5034583;28;20183;-68
2021/05/10 08:05:39;;;;;;;4.30;4.00;;;20.80;99.90;;;;;;5033015;28;20948;-69
2021/05/10 08:08:06;;;;;;;7.07;4.40;;;20.70;99.90;;;;;;5033978;28;20677;-71
2021/05/10 08:10:32;;;;;;;5.60;4.20;;;20.70;99.90;;;;;;5040613;28;20442;-70
2021/05/10 08:12:58;;;;;;;4.50;4.20;;;20.60;99.90;;;;;;5036600;28;20560;-70
2021/05/10 08:15:25;;;;;;;4.30;4.00;;;20.50;99.90;;;;;;5036114;28;20448;-70
2021/05/10 08:17:51;;;;;;;3.90;3.60;;;20.50;99.90;;;;;;5035492;28;20557;-70
2021/05/10 08:20:17;;;;;;;3.73;3.53;;;20.50;99.90;;;;;;5032605;28;20490;-71
2021/05/10 08:22:44;;;;;;;3.70;3.43;;;20.50;99.90;;;;;;5032526;28;20509;-70
2021/05/10 08:25:12;;;;;;;4.10;3.70;;;20.50;99.90;;;;;;5035070;28;21098;-71
2021/05/10 08:27:38;;;;;;;3.03;2.83;;;20.50;99.90;;;;;;5036918;28;20537;-71
2021/05/10 08:30:05;;;;;;;4.60;3.63;;;20.50;99.90;;;;;;5028625;28;20536;-72
2021/05/10 08:32:31;;;;;;;4.10;3.80;;;20.40;99.90;;;;;;5026790;28;20461;-71
2021/05/10 08:34:57;;;;;;;5.30;4.60;;;20.30;99.90;;;;;;5036680;28;20463;-70
2021/05/10 08:37:22;;;;;;;3.47;3.27;;;20.30;99.90;;;;;;5036826;28;20522;-72
2021/05/10 08:39:48;;;;;;;3.80;3.30;;;20.30;99.90;;;;;;5035385;28;20207;-69
2021/05/10 08:42:18;;;;;;;3.87;3.67;;;20.30;99.90;;;;;;5029638;28;20207;-70
2021/05/10 08:44:44;;;;;;;4.20;3.90;;;20.20;99.90;;;;;;5014743;28;20313;-69
2021/05/10 08:47:10;;;;;;;3.90;3.60;;;20.30;99.90;;;;;;5037582;28;20439;-68
2021/05/10 08:49:36;;;;;;;3.40;3.20;;;20.30;99.90;;;;;;5038851;28;20655;-73
2021/05/10 08:52:02;;;;;;;4.20;3.90;;;20.40;99.90;;;;;;5034129;28;20674;-69
2021/05/10 08:54:28;;;;;;;3.77;3.47;;;20.40;99.90;;;;;;5026326;28;20467;-70
2021/05/10 08:56:56;;;;;;;3.47;3.23;;;20.60;99.90;;;;;;5037992;28;20278;-75
2021/05/10 08:59:23;;;;;;;6.40;3.57;;;20.60;99.90;;;;;;5041720;28;21077;-70
2021/05/10 09:01:57;;;;;;;4.10;3.80;;;20.60;99.90;;;;;;5036408;28;20474;-72
2021/05/10 09:04:37;;;;;;;3.80;3.50;;;20.60;99.90;;;;;;5037217;28;20607;-73
2021/05/10 09:07:11;;;;;;;3.97;3.67;;;20.60;99.90;;;;;;5029269;28;20445;-73
2021/05/10 09:09:53;;;;;;;2.93;2.73;;;20.60;99.90;;;;;;5024099;28;20535;-72
2021/05/10 09:12:21;;;;;;;3.53;3.33;;;20.50;99.90;;;;;;5042511;28;21336;-69
2021/05/10 09:14:47;;;;;;;3.70;3.20;;;20.50;99.90;;;;;;5023662;28;20869;-69
2021/05/10 09:17:12;;;;;;;3.40;3.20;;;20.40;99.90;;;;;;5044290;28;20437;-69
2021/05/10 09:19:56;;;;;;;3.13;2.93;;;20.60;99.90;;;;;;5027999;28;20901;-70
2021/05/10 09:22:22;;;;;;;3.87;3.57;;;20.80;99.90;;;;;;5042848;28;20595;-72
2021/05/10 09:24:50;;;;;;;3.73;3.30;;;20.80;99.90;;;;;;5041402;28;20495;-69
2021/05/10 09:27:23;;;;;;;6.20;3.20;;;20.90;99.90;;;;;;5037345;28;20442;-71
2021/05/10 09:29:50;;;;;;;3.27;3.07;;;20.90;99.90;;;;;;5030800;28;20825;-70
2021/05/10 09:32:26;;;;;;;3.20;2.90;;;20.80;99.90;;;;;;5043242;28;20464;-72
2021/05/10 09:35:18;;;;;;;3.03;2.83;;;20.80;99.90;;;;;;5037735;28;20466;-71
2021/05/10 09:37:44;;;;;;;3.35;3.15;;;20.80;99.90;;;;;;5039680;28;20425;-69
2021/05/10 09:40:11;;;;;;;3.70;3.50;;;21.00;99.90;;;;;;5037546;28;20495;-70
2021/05/10 09:42:48;;;;;;;4.53;3.40;;;21.10;99.90;;;;;;5036479;28;20450;-70
2021/05/10 09:45:34;;;;;;;3.27;3.07;;;21.20;99.90;;;;;;5040961;28;20446;-69
2021/05/10 09:48:14;;;;;;;4.80;3.50;;;21.30;99.90;;;;;;5039071;28;20461;-71
2021/05/10 09:50:50;;;;;;;4.27;3.33;;;21.20;99.90;;;;;;5040045;28;20997;-71
2021/05/10 09:53:27;;;;;;;3.53;3.33;;;21.20;99.90;;;;;;5035125;28;20464;-70
2021/05/10 09:55:54;;;;;;;3.20;3.00;;;21.10;99.90;;;;;;5041783;28;20847;-70
2021/05/10 09:58:22;;;;;;;7.27;2.80;;;21.30;99.90;;;;;;5045750;28;20471;-70
2021/05/10 10:00:53;;;;;;;3.40;3.10;;;21.30;99.80;;;;;;5040210;28;20438;-71
2021/05/10 10:03:41;;;;;;;3.57;3.27;;;21.30;99.90;;;;;;5040489;28;20450;-73
2021/05/10 10:06:10;;;;;;;3.30;3.10;;;21.30;99.90;;;;;;5042964;28;20429;-72
2021/05/10 10:08:37;;;;;;;3.53;3.33;;;21.30;99.90;;;;;;5040135;28;20469;-71
2021/05/10 10:11:05;;;;;;;3.43;3.23;;;21.30;99.90;;;;;;5041222;28;20968;-71
2021/05/10 10:13:31;;;;;;;3.37;3.17;;;21.30;99.90;;;;;;5030695;28;20450;-71
2021/05/10 10:15:58;;;;;;;3.13;2.93;;;21.30;99.70;;;;;;5033442;28;21164;-70
2021/05/10 10:18:25;;;;;;;3.27;3.07;;;21.40;98.80;;;;;;5037402;28;20219;-70
2021/05/10 10:20:53;;;;;;;3.70;3.50;;;21.50;98.60;;;;;;5022343;28;20431;-72
2021/05/10 10:23:22;;;;;;;3.17;3.00;;;21.50;97.70;;;;;;5040898;28;20462;-72
2021/05/10 10:25:48;;;;;;;3.10;2.90;;;21.50;98.00;;;;;;5019256;28;21343;-74
2021/05/10 10:28:19;;;;;;;3.40;3.20;;;21.70;98.10;;;;;;5039860;28;21052;-76
2021/05/10 10:30:49;;;;;;;3.37;3.17;;;21.80;98.10;;;;;;5038055;28;20500;-72
2021/05/10 10:33:24;;;;;;;3.67;3.47;;;21.80;97.80;;;;;;5036001;28;21016;-72
2021/05/10 10:35:50;;;;;;;3.60;3.30;;;21.80;97.60;;;;;;5035102;28;20481;-72
2021/05/10 10:38:26;;;;;;;3.20;3.00;;;21.70;97.10;;;;;;5036035;28;20477;-72
2021/05/10 10:41:25;;;;;;;4.17;2.93;;;21.50;97.10;;;;;;5038632;28;20536;-68
2021/05/10 10:43:51;;;;;;;3.20;3.00;;;21.30;97.40;;;;;;5038005;28;20446;-69
2021/05/10 10:46:23;;;;;;;3.17;2.97;;;21.40;97.20;;;;;;5035158;28;20463;-70
2021/05/10 10:48:51;;;;;;;3.70;3.50;;;21.30;97.60;;;;;;5021489;28;20460;-70
2021/05/10 10:51:18;;;;;;;3.47;3.27;;;21.30;97.60;;;;;;5037462;28;20537;-70
2021/05/10 10:53:49;;;;;;;3.40;3.17;;;21.20;97.40;;;;;;5037433;28;20527;-72
2021/05/10 10:56:16;;;;;;;3.37;3.17;;;21.00;97.90;;;;;;5024448;28;20431;-75
2021/05/10 10:58:47;;;;;;;3.00;2.80;;;20.90;98.60;;;;;;5038716;28;20482;-72
2021/05/10 11:01:23;;;;;;;3.40;3.20;;;20.80;99.20;;;;;;5033634;28;20477;-75
2021/05/10 11:03:49;;;;;;;3.53;3.33;;;20.70;99.30;;;;;;5035582;28;20602;-76
2021/05/10 11:06:15;;;;;;;3.30;3.10;;;20.80;99.60;;;;;;5046224;28;20525;-73
2021/05/10 11:08:49;;;;;;;3.40;3.20;;;20.80;99.40;;;;;;5039575;28;20567;-75
2021/05/10 11:11:27;;;;;;;3.40;3.20;;;20.80;99.30;;;;;;5044639;28;20549;-74
2021/05/10 11:13:53;;;;;;;3.43;3.23;;;20.70;99.50;;;;;;5040412;28;20511;-75
2021/05/10 11:16:53;;;;;;;3.20;3.00;;;20.70;99.80;;;;;;5030814;28;20478;-75
2021/05/10 11:19:36;;;;;;;3.20;3.00;;;20.70;99.90;;;;;;5040551;28;20546;-74
2021/05/10 11:22:21;;;;;;;3.10;2.90;;;20.60;99.90;;;;;;5041287;28;20513;-75
2021/05/10 11:24:47;;;;;;;3.40;3.20;;;20.60;99.80;;;;;;5039012;28;20512;-76
2021/05/10 11:27:28;;;;;;;3.10;2.90;;;20.40;99.70;;;;;;5027082;28;22604;-75
2021/05/10 11:29:54;;;;;;;3.20;3.00;;;20.40;99.90;;;;;;5035708;28;20665;-73
2021/05/10 11:32:21;;;;;;;3.30;3.10;;;20.40;99.90;;;;;;5036574;28;20462;-72
2021/05/10 11:34:48;;;;;;;3.30;3.10;;;20.50;99.90;;;;;;5037637;28;20272;-75
2021/05/10 11:37:21;;;;;;;3.63;3.43;;;20.50;99.90;;;;;;5039652;28;20916;-74
2021/05/10 11:39:47;;;;;;;3.67;3.37;;;20.50;99.90;;;;;;5035998;28;20466;-74
2021/05/10 11:42:13;;;;;;;3.53;3.33;;;20.50;99.90;;;;;;5033797;28;20461;-78
2021/05/10 11:44:40;;;;;;;3.10;2.90;;;20.60;99.90;;;;;;5039732;28;20462;-72
2021/05/10 11:47:08;;;;;;;2.90;2.70;;;20.60;99.90;;;;;;5042563;28;20196;-73
2021/05/10 11:49:51;;;;;;;2.77;2.50;;;20.50;99.90;;;;;;5039301;28;20530;-69
2021/05/10 11:52:19;;;;;;;3.80;3.50;;;20.40;99.90;;;;;;5041224;28;20426;-74
2021/05/10 11:54:54;;;;;;;3.10;2.90;;;20.30;99.90;;;;;;5028130;28;20463;-73
2021/05/10 11:57:22;;;;;;;4.73;3.10;;;20.30;99.90;;;;;;5037664;28;20484;-74
2021/05/10 11:59:52;;;;;;;10.63;3.90;;;20.10;99.90;;;;;;5040385;28;20902;-73
2021/05/10 12:02:23;;;;;;;7.80;5.50;;;20.10;99.90;;;;;;5021998;28;20497;-73
2021/05/10 12:04:49;;;;;;;4.33;3.60;;;20.00;99.90;;;;;;4995688;28;21178;-73
2021/05/10 12:07:16;;;;;;;7.03;3.60;;;20.00;99.90;;;;;;5037958;28;20474;-73
2021/05/10 12:09:56;;;;;;;4.27;3.50;;;20.00;99.90;;;;;;5032280;28;20192;-74
2021/05/10 12:12:28;;;;;;;3.20;3.00;;;19.90;99.90;;;;;;5028382;28;20437;-73
2021/05/10 12:14:59;;;;;;;3.00;2.80;;;19.90;99.90;;;;;;5033757;28;21164;-73
2021/05/10 12:17:28;;;;;;;3.10;2.90;;;19.80;99.90;;;;;;5023977;28;20476;-73
2021/05/10 12:19:56;;;;;;;2.90;2.80;;;19.80;99.90;;;;;;5040445;28;20484;-75
2021/05/10 12:22:21;;;;;;;3.30;3.10;;;19.80;99.90;;;;;;5035529;28;20438;-74
2021/05/10 12:25:12;;;;;;;3.20;3.00;;;19.70;99.90;;;;;;5034193;28;20511;-75
2021/05/10 12:27:48;;;;;;;3.30;3.10;;;19.60;99.90;;;;;;5033780;28;20211;-74
2021/05/10 12:30:18;;;;;;;3.33;3.13;;;19.50;99.90;;;;;;5038940;28;20483;-73
2021/05/10 12:32:46;;;;;;;3.43;3.23;;;19.50;99.90;;;;;;5036789;28;20455;-73
2021/05/10 12:35:15;;;;;;;6.73;5.00;;;19.50;99.90;;;;;;5034656;28;20462;-77
2021/05/10 12:37:44;;;;;;;6.83;6.23;;;19.40;99.90;;;;;;5009231;28;20571;-76
2021/05/10 12:40:12;;;;;;;3.40;3.20;;;19.50;99.90;;;;;;5019188;28;20485;-75
2021/05/10 12:42:38;;;;;;;3.40;3.20;;;19.50;99.90;;;;;;5033406;28;20447;-77
2021/05/10 12:45:14;;;;;;;3.20;3.00;;;19.40;99.90;;;;;;5033623;28;20495;-75
2021/05/10 12:47:40;;;;;;;3.40;3.20;;;19.30;99.90;;;;;;5032942;28;21000;-75
2021/05/10 12:50:08;;;;;;;4.00;3.40;;;19.30;99.90;;;;;;5032631;28;20478;-75
2021/05/10 12:52:51;;;;;;;2.90;2.80;;;19.20;99.90;;;;;;5034458;28;20434;-77
2021/05/10 12:55:21;;;;;;;3.70;3.50;;;19.20;99.90;;;;;;5031342;28;20473;-75